Time;durP1;ratioP1;P1;durP2;ratioP2;P2;SDS_P1;SDS_P2;PMS_P1;PMS_P2;Temp;Humidity;BMP_temperature;BMP_pressure;BME280_temperature;BME280_humidity;BME280_pressure;Samples;Min_cycle;Max_cycle;Signal;HPM_P1;HPM_P2
2024/02/02 00:00:16;;;;;;;;;;;;;;;2.77;100.00;99962.13;109254;1253;65811;-63
2024/02/02 00:02:44;;;;;;;;;;;;;;;2.76;100.00;99960.13;109193;1253;72821;-62
2024/02/02 00:05:12;;;;;;;;;;;;;;;2.76;100.00;99960.52;109218;1254;59663;-62
2024/02/02 00:07:39;;;;;;;;;;;;;;;2.74;100.00;99961.70;109266;1253;59535;-62
2024/02/02 00:10:07;;;;;;;;;;;;;;;2.72;100.00;99957.73;109250;1253;74865;-62
2024/02/02 00:12:35;;;;;;;;;;;;;;;2.72;100.00;99958.25;109281;1253;65724;-62
2024/02/02 00:15:03;;;;;;;;;;;;;;;2.72;100.00;99956.94;109237;1253;73516;-61
2024/02/02 00:17:31;;;;;;;;;;;;;;;2.72;100.00;99953.63;109203;1254;59298;-62
2024/02/02 00:19:58;;;;;;;;;;;;;;;2.71;100.00;99949.98;109238;1253;59815;-63
2024/02/02 00:22:26;;;;;;;;;;;;;;;2.70;100.00;99947.49;109237;1253;74657;-63
2024/02/02 00:24:53;;;;;;;;;;;;;;;2.69;100.00;99947.02;109248;1253;66955;-64
2024/02/02 00:27:21;;;;;;;;;;;;;;;2.70;100.00;99941.64;109223;1253;72831;-61
2024/02/02 00:29:49;;;;;;;;;;;;;;;2.71;100.00;99939.64;109242;1253;59449;-62
2024/02/02 00:32:19;;;;;;;;;;;;;;;2.68;100.00;99936.80;109220;1253;59884;-64
2024/02/02 00:34:46;;;;;;;;;;;;;;;2.67;100.00;99931.24;109268;1252;74906;-61
2024/02/02 00:37:14;;;;;;;;;;;;;;;2.68;100.00;99928.71;109189;1252;66948;-63
2024/02/02 00:39:42;;;;;;;;;;;;;;;2.68;100.00;99928.74;109236;1253;71640;-62
2024/02/02 00:42:09;;;;;;;;;;;;;;;2.69;100.00;99924.19;109251;1253;59060;-62
2024/02/02 00:44:37;;;;;;;;;;;;;;;2.69;100.00;99918.38;109192;1253;59261;-62
2024/02/02 00:47:05;;;;;;;;;;;;;;;2.71;100.00;99916.55;109216;1253;77089;-66
2024/02/02 00:49:33;;;;;;;;;;;;;;;2.70;100.00;99912.82;109209;1253;66966;-62
2024/02/02 00:52:01;;;;;;;;;;;;;;;2.68;100.00;99901.98;109225;1258;71821;-63
2024/02/02 00:54:28;;;;;;;;;;;;;;;2.67;100.00;99898.15;109226;1253;60879;-61
2024/02/02 00:56:56;;;;;;;;;;;;;;;2.67;100.00;99894.19;109274;1253;59892;-62
2024/02/02 00:59:23;;;;;;;;;;;;;;;2.67;100.00;99895.77;109155;1253;74734;-62
2024/02/02 01:01:51;;;;;;;;;;;;;;;2.66;100.00;99889.48;109191;1253;66980;-62
2024/02/02 01:04:19;;;;;;;;;;;;;;;2.65;100.00;99885.73;109110;1254;71617;-61
2024/02/02 01:06:46;;;;;;;;;;;;;;;2.64;100.00;99884.66;109120;1253;60984;-62
2024/02/02 01:09:14;;;;;;;;;;;;;;;2.65;100.00;99879.42;109165;1253;59095;-67
2024/02/02 01:11:42;;;;;;;;;;;;;;;2.65;100.00;99875.02;109189;1253;74716;-61
2024/02/02 01:14:09;;;;;;;;;;;;;;;2.63;100.00;99870.14;109215;1253;65625;-61
2024/02/02 01:16:37;;;;;;;;;;;;;;;2.64;100.00;99864.10;109164;1253;71375;-62
2024/02/02 01:19:04;;;;;;;;;;;;;;;2.63;100.00;99858.52;109169;1253;60909;-61
2024/02/02 01:21:33;;;;;;;;;;;;;;;2.64;100.00;99860.27;109182;1253;59385;-65
2024/02/02 01:24:01;;;;;;;;;;;;;;;2.65;100.00;99857.16;109196;1259;74750;-61
2024/02/02 01:26:30;;;;;;;;;;;;;;;2.65;100.00;99858.84;109182;1253;67416;-61
2024/02/02 01:28:57;;;;;;;;;;;;;;;2.66;100.00;99856.73;109214;1253;72988;-61
2024/02/02 01:31:25;;;;;;;;;;;;;;;2.69;100.00;99851.46;109291;1253;59403;-61
2024/02/02 01:33:52;;;;;;;;;;;;;;;2.68;100.00;99851.17;109145;1253;59941;-63
2024/02/02 01:36:20;;;;;;;;;;;;;;;2.67;100.00;99848.70;109242;1253;74717;-61
2024/02/02 01:38:50;;;;;;;;;;;;;;;2.65;100.00;99848.88;109167;1253;66955;-61
2024/02/02 01:41:17;;;;;;;;;;;;;;;2.64;100.00;99846.56;109176;1253;72774;-61
2024/02/02 01:43:45;;;;;;;;;;;;;;;2.64;100.00;99849.69;109167;1253;59030;-61
2024/02/02 01:46:13;;;;;;;;;;;;;;;2.64;100.00;99843.35;109163;1253;59746;-62
2024/02/02 01:48:41;;;;;;;;;;;;;;;2.61;100.00;99837.12;109224;1253;73396;-61
2024/02/02 01:51:08;;;;;;;;;;;;;;;2.59;100.00;99832.46;109229;1253;65644;-61
2024/02/02 01:53:36;;;;;;;;;;;;;;;2.59;100.00;99834.39;109221;1253;72828;-61
2024/02/02 01:56:04;;;;;;;;;;;;;;;2.59;100.00;99824.80;109218;1253;60879;-64
2024/02/02 01:58:32;;;;;;;;;;;;;;;2.59;100.00;99821.90;109237;1253;60653;-60
2024/02/02 02:00:59;;;;;;;;;;;;;;;2.58;100.00;99818.84;109236;1253;74610;-61
2024/02/02 02:03:27;;;;;;;;;;;;;;;2.58;100.00;99812.52;109245;1253;66955;-61
2024/02/02 02:05:55;;;;;;;;;;;;;;;2.57;100.00;99813.61;109216;1253;71756;-62
2024/02/02 02:08:23;;;;;;;;;;;;;;;2.57;100.00;99817.10;109156;1253;61295;-61
2024/02/02 02:10:50;;;;;;;;;;;;;;;2.56;100.00;99821.77;109193;1253;59607;-62
2024/02/02 02:13:18;;;;;;;;;;;;;;;2.55;100.00;99821.94;109235;1253;74713;-62
2024/02/02 02:15:45;;;;;;;;;;;;;;;2.54;100.00;99831.39;109206;1253;67461;-61
2024/02/02 02:18:13;;;;;;;;;;;;;;;2.50;100.00;99833.48;109224;1253;72722;-61
2024/02/02 02:20:41;;;;;;;;;;;;;;;2.49;100.00;99838.39;109162;1253;61044;-62
2024/02/02 02:23:09;;;;;;;;;;;;;;;2.50;100.00;99844.33;109216;1253;59106;-61
2024/02/02 02:25:36;;;;;;;;;;;;;;;2.49;100.00;99841.84;109233;1253;74660;-61
2024/02/02 02:28:04;;;;;;;;;;;;;;;2.46;100.00;99841.39;109224;1253;65087;-61
2024/02/02 02:30:32;;;;;;;;;;;;;;;2.45;100.00;99839.77;109215;1253;71927;-66
2024/02/02 02:32:59;;;;;;;;;;;;;;;2.42;100.00;99833.17;109203;1253;61207;-61
2024/02/02 02:35:27;;;;;;;;;;;;;;;2.41;100.00;99838.62;109251;1253;59923;-61
2024/02/02 02:37:55;;;;;;;;;;;;;;;2.39;100.00;99837.09;109189;1253;73462;-61
2024/02/02 02:40:22;;;;;;;;;;;;;;;2.37;100.00;99835.35;109236;1252;65730;-62
2024/02/02 02:42:50;;;;;;;;;;;;;;;2.36;100.00;99830.65;109182;1253;71453;-61
2024/02/02 02:45:18;;;;;;;;;;;;;;;2.34;100.00;99832.59;109222;1253;60911;-61
2024/02/02 02:47:45;;;;;;;;;;;;;;;2.32;100.00;99832.95;109258;1253;58976;-62
2024/02/02 02:50:13;;;;;;;;;;;;;;;2.31;100.00;99831.83;109219;1253;74682;-61
2024/02/02 02:52:41;;;;;;;;;;;;;;;2.30;100.00;99833.58;109174;1253;65729;-63
2024/02/02 02:55:08;;;;;;;;;;;;;;;2.29;100.00;99834.54;109228;1253;73278;-61
2024/02/02 02:57:36;;;;;;;;;;;;;;;2.29;100.00;99834.38;109192;1253;59145;-61
2024/02/02 03:00:04;;;;;;;;;;;;;;;2.28;100.00;99833.30;109203;1253;59879;-61
2024/02/02 03:02:32;;;;;;;;;;;;;;;2.26;100.00;99826.08;109250;1253;73391;-61
2024/02/02 03:04:59;;;;;;;;;;;;;;;2.23;100.00;99822.14;109159;1253;65727;-61
2024/02/02 03:07:27;;;;;;;;;;;;;;;2.20;100.00;99820.97;109285;1253;72721;-61
2024/02/02 03:09:54;;;;;;;;;;;;;;;2.12;100.00;99819.86;109217;1253;58944;-62
2024/02/02 03:12:22;;;;;;;;;;;;;;;2.01;100.00;99823.75;109225;1253;59913;-60
2024/02/02 03:14:49;;;;;;;;;;;;;;;1.88;100.00;99823.67;109226;1253;74770;-62
2024/02/02 03:17:17;;;;;;;;;;;;;;;1.80;100.00;99823.95;109230;1254;66876;-61
2024/02/02 03:19:44;;;;;;;;;;;;;;;1.76;100.00;99824.77;109369;1253;71540;-61
2024/02/02 03:22:12;;;;;;;;;;;;;;;1.75;100.00;99824.89;109235;1258;61018;-60
2024/02/02 03:24:40;;;;;;;;;;;;;;;1.75;100.00;99830.74;109278;1253;59213;-61
2024/02/02 03:27:07;;;;;;;;;;;;;;;1.78;100.00;99836.23;109195;1253;73447;-64
2024/02/02 03:29:35;;;;;;;;;;;;;;;1.83;100.00;99834.79;109304;1253;65795;-61
2024/02/02 03:32:03;;;;;;;;;;;;;;;1.87;100.00;99834.29;109220;1255;72676;-61
2024/02/02 03:34:30;;;;;;;;;;;;;;;1.90;100.00;99836.73;109212;1253;59695;-60
2024/02/02 03:36:58;;;;;;;;;;;;;;;1.94;100.00;99836.00;109218;1253;58875;-64
2024/02/02 03:39:26;;;;;;;;;;;;;;;1.99;100.00;99834.23;109338;1253;73017;-62
2024/02/02 03:41:53;;;;;;;;;;;;;;;1.99;100.00;99832.17;109289;1253;67431;-61
2024/02/02 03:44:21;;;;;;;;;;;;;;;1.99;100.00;99832.37;109235;1253;72655;-61
2024/02/02 03:46:48;;;;;;;;;;;;;;;1.95;100.00;99834.74;109197;1253;60893;-61
2024/02/02 03:49:16;;;;;;;;;;;;;;;1.91;100.00;99837.67;109150;1253;59782;-64
2024/02/02 03:51:44;;;;;;;;;;;;;;;1.89;100.00;99836.63;109215;1253;74626;-61
2024/02/02 03:54:11;;;;;;;;;;;;;;;1.91;100.00;99834.25;109227;1253;65806;-61
2024/02/02 03:56:40;;;;;;;;;;;;;;;1.91;100.00;99830.84;109222;1253;71655;-61
2024/02/02 03:59:08;;;;;;;;;;;;;;;1.91;100.00;99831.20;109171;1253;60173;-61
2024/02/02 04:01:36;;;;;;;;;;;;;;;1.91;100.00;99833.16;109222;1253;58891;-61
2024/02/02 04:04:04;;;;;;;;;;;;;;;1.93;100.00;99833.73;109248;1253;73460;-61
2024/02/02 04:06:32;;;;;;;;;;;;;;;1.94;100.00;99833.64;109211;1253;65677;-61
2024/02/02 04:09:00;;;;;;;;;;;;;;;1.93;100.00;99833.50;109178;1253;72761;-66
2024/02/02 04:11:28;;;;;;;;;;;;;;;1.93;100.00;99832.84;109197;1253;59296;-62
2024/02/02 04:13:55;;;;;;;;;;;;;;;1.94;100.00;99835.49;109214;1253;59884;-61
2024/02/02 04:16:23;;;;;;;;;;;;;;;1.95;100.00;99833.15;109222;1253;74821;-60
2024/02/02 04:18:50;;;;;;;;;;;;;;;1.97;100.00;99832.31;109352;1253;66937;-61
2024/02/02 04:21:18;;;;;;;;;;;;;;;1.98;100.00;99830.17;109151;1254;71437;-62
2024/02/02 04:23:45;;;;;;;;;;;;;;;1.99;100.00;99827.23;109231;1253;60926;-61
2024/02/02 04:26:13;;;;;;;;;;;;;;;1.99;100.00;99829.70;109240;1253;59906;-61
2024/02/02 04:28:40;;;;;;;;;;;;;;;2.00;100.00;99828.68;109244;1253;73418;-61
2024/02/02 04:31:08;;;;;;;;;;;;;;;2.00;100.00;99829.70;109224;1253;66886;-61
2024/02/02 04:33:36;;;;;;;;;;;;;;;2.01;100.00;99825.81;109201;1253;72880;-64
2024/02/02 04:36:04;;;;;;;;;;;;;;;2.02;100.00;99829.66;109174;1253;58988;-61
2024/02/02 04:38:31;;;;;;;;;;;;;;;2.02;100.00;99833.95;109212;1252;59059;-61
2024/02/02 04:40:59;;;;;;;;;;;;;;;2.02;100.00;99837.40;109217;1253;74787;-61
2024/02/02 04:43:26;;;;;;;;;;;;;;;2.02;100.00;99839.73;109200;1252;65856;-67
2024/02/02 04:45:54;;;;;;;;;;;;;;;2.04;100.00;99843.50;109169;1254;72746;-61
2024/02/02 04:48:21;;;;;;;;;;;;;;;2.07;100.00;99844.98;109195;1253;59731;-61
2024/02/02 04:50:49;;;;;;;;;;;;;;;2.05;100.00;99850.95;109257;1253;59911;-62
2024/02/02 04:53:17;;;;;;;;;;;;;;;2.06;100.00;99853.45;109243;1253;74942;-61
2024/02/02 04:55:44;;;;;;;;;;;;;;;2.08;100.00;99855.45;109215;1253;65815;-64
2024/02/02 04:58:12;;;;;;;;;;;;;;;2.10;100.00;99857.89;109248;1253;72729;-61
2024/02/02 05:00:40;;;;;;;;;;;;;;;2.10;100.00;99855.29;109207;1253;60991;-60
2024/02/02 05:03:07;;;;;;;;;;;;;;;2.12;100.00;99856.70;109253;1253;59891;-61
2024/02/02 05:05:37;;;;;;;;;;;;;;;2.12;100.00;99857.15;109190;1253;74744;-66
2024/02/02 05:08:05;;;;;;;;;;;;;;;2.12;100.00;99859.90;109246;1253;66954;-62
2024/02/02 05:10:32;;;;;;;;;;;;;;;2.12;100.00;99860.24;109241;1253;72369;-62
2024/02/02 05:13:00;;;;;;;;;;;;;;;2.11;100.00;99860.19;109383;1253;60742;-62
2024/02/02 05:15:27;;;;;;;;;;;;;;;2.12;100.00;99863.65;109212;1253;59750;-67
2024/02/02 05:17:55;;;;;;;;;;;;;;;2.14;100.00;99865.54;109199;1258;74679;-62
2024/02/02 05:20:23;;;;;;;;;;;;;;;2.14;100.00;99869.33;109266;1253;65904;-62
2024/02/02 05:22:51;;;;;;;;;;;;;;;2.13;100.00;99873.04;109227;1253;73232;-62
2024/02/02 05:25:18;;;;;;;;;;;;;;;2.13;100.00;99873.56;109215;1253;59230;-65
2024/02/02 05:27:46;;;;;;;;;;;;;;;2.13;100.00;99873.39;109163;1253;60083;-63
2024/02/02 05:30:14;;;;;;;;;;;;;;;2.13;100.00;99878.48;109172;1253;74701;-63
2024/02/02 05:32:42;;;;;;;;;;;;;;;2.14;100.00;99883.05;109192;1253;65729;-63
2024/02/02 05:35:10;;;;;;;;;;;;;;;2.16;100.00;99881.33;109343;1253;73158;-64
2024/02/02 05:37:37;;;;;;;;;;;;;;;2.16;100.00;99881.98;109106;1255;61114;-64
2024/02/02 05:40:05;;;;;;;;;;;;;;;2.18;100.00;99879.42;109295;1253;59882;-64
2024/02/02 05:42:33;;;;;;;;;;;;;;;2.21;100.00;99879.91;109187;1253;73427;-64
2024/02/02 05:45:00;;;;;;;;;;;;;;;2.22;100.00;99881.52;109195;1253;66815;-65
2024/02/02 05:47:28;;;;;;;;;;;;;;;2.23;100.00;99882.23;109118;1257;72705;-65
2024/02/02 05:49:56;;;;;;;;;;;;;;;2.26;100.00;99884.02;109171;1253;60895;-64
2024/02/02 05:52:23;;;;;;;;;;;;;;;2.27;100.00;99890.09;109242;1253;59318;-64
2024/02/02 05:54:51;;;;;;;;;;;;;;;2.30;100.00;99892.91;109177;1253;73479;-66
2024/02/02 05:57:18;;;;;;;;;;;;;;;2.33;100.00;99895.28;109220;1253;65672;-64
2024/02/02 05:59:46;;;;;;;;;;;;;;;2.32;100.00;99893.63;109098;1256;72334;-64
2024/02/02 06:02:14;;;;;;;;;;;;;;;2.33;100.00;99898.55;109167;1254;60914;-63
2024/02/02 06:04:42;;;;;;;;;;;;;;;2.32;100.00;99895.52;109252;1253;58896;-63
2024/02/02 06:07:09;;;;;;;;;;;;;;;2.33;100.00;99895.12;109163;1253;74748;-63
2024/02/02 06:09:37;;;;;;;;;;;;;;;2.34;100.00;99899.12;109180;1253;66931;-68
2024/02/02 06:12:05;;;;;;;;;;;;;;;2.35;100.00;99901.73;109224;1253;72120;-65
2024/02/02 06:14:32;;;;;;;;;;;;;;;2.37;100.00;99901.42;109161;1254;59276;-63
2024/02/02 06:17:00;;;;;;;;;;;;;;;2.39;100.00;99898.84;109213;1253;59897;-65
2024/02/02 06:19:27;;;;;;;;;;;;;;;2.41;100.00;99895.72;109225;1253;74741;-65
2024/02/02 06:21:55;;;;;;;;;;;;;;;2.44;100.00;99895.29;109132;1254;64982;-65
2024/02/02 06:24:24;;;;;;;;;;;;;;;2.51;100.00;99889.48;109213;1253;71832;-62
2024/02/02 06:26:52;;;;;;;;;;;;;;;2.60;100.00;99889.33;109202;1253;59332;-62
2024/02/02 06:29:20;;;;;;;;;;;;;;;2.70;100.00;99900.08;109220;1253;60217;-62
2024/02/02 06:31:47;;;;;;;;;;;;;;;2.81;100.00;99902.88;109204;1253;74773;-62
2024/02/02 06:34:15;;;;;;;;;;;;;;;2.92;100.00;99903.77;109277;1254;66200;-62
2024/02/02 06:36:43;;;;;;;;;;;;;;;3.02;100.00;99903.30;109198;1254;71877;-62
2024/02/02 06:39:10;;;;;;;;;;;;;;;3.10;100.00;99902.21;109249;1254;61008;-62
2024/02/02 06:41:38;;;;;;;;;;;;;;;3.19;100.00;99905.20;109260;1253;58972;-62
2024/02/02 06:44:05;;;;;;;;;;;;;;;3.26;100.00;99904.50;109163;1259;73801;-67
2024/02/02 06:46:33;;;;;;;;;;;;;;;3.32;100.00;99906.38;109202;1254;65778;-62
2024/02/02 06:49:01;;;;;;;;;;;;;;;3.35;100.00;99907.64;109286;1255;71744;-62
2024/02/02 06:51:29;;;;;;;;;;;;;;;3.37;100.00;99905.73;109169;1255;62967;-62
2024/02/02 06:53:56;;;;;;;;;;;;;;;3.44;100.00;99905.24;109213;1253;62568;-62
2024/02/02 06:56:30;;;;;;;;;;;;;;;3.52;100.00;99910.45;109117;1254;74683;-63
2024/02/02 06:58:57;;;;;;;;;;;;;;;3.62;100.00;99909.34;109231;1254;67360;-63
2024/02/02 07:01:25;;;;;;;;;;;;;;;3.70;100.00;99910.13;109244;1253;72859;-63
2024/02/02 07:03:52;;;;;;;;;;;;;;;3.81;100.00;99909.42;109145;1254;60923;-64
2024/02/02 07:06:20;;;;;;;;;;;;;;;3.93;100.00;99905.99;109319;1254;60321;-68
2024/02/02 07:08:48;;;;;;;;;;;;;;;4.03;100.00;99908.43;109191;1254;73455;-64
2024/02/02 07:11:15;;;;;;;;;;;;;;;4.12;100.00;99911.73;109118;1253;66144;-63
2024/02/02 07:13:46;;;;;;;;;;;;;;;4.23;100.00;99912.73;109133;1254;72747;-63
2024/02/02 07:16:19;;;;;;;;;;;;;;;4.37;100.00;99914.45;109097;1253;60979;-63
2024/02/02 07:18:46;;;;;;;;;;;;;;;4.50;100.00;99911.82;109159;1253;59008;-62
2024/02/02 07:21:14;;;;;;;;;;;;;;;4.58;100.00;99913.52;109199;1253;74748;-61
2024/02/02 07:23:44;;;;;;;;;;;;;;;4.64;100.00;99912.90;109379;1254;65732;-62
2024/02/02 07:26:22;;;;;;;;;;;;;;;4.70;100.00;99917.71;109157;1254;72758;-67
2024/02/02 07:28:50;;;;;;;;;;;;;;;4.74;100.00;99922.10;109217;1254;60042;-62
2024/02/02 07:31:27;;;;;;;;;;;;;;;4.68;100.00;99926.33;109162;1254;61715;-62
2024/02/02 07:33:55;;;;;;;;;;;;;;;4.59;100.00;99927.34;109187;1254;76005;-62
2024/02/02 07:36:27;;;;;;;;;;;;;;;4.57;100.00;99924.49;109117;1254;66985;-62
2024/02/02 07:38:54;;;;;;;;;;;;;;;4.68;100.00;99927.58;109143;1259;73715;-63
2024/02/02 07:41:24;;;;;;;;;;;;;;;4.82;100.00;99922.89;109169;1254;59435;-62
2024/02/02 07:43:54;;;;;;;;;;;;;;;4.98;100.00;99923.50;109164;1254;59956;-66
2024/02/02 07:46:22;;;;;;;;;;;;;;;5.30;100.00;99922.14;109064;1253;74655;-62
2024/02/02 07:48:50;;;;;;;;;;;;;;;5.75;100.00;99915.02;109159;1254;66948;-62
2024/02/02 07:51:18;;;;;;;;;;;;;;;6.35;100.00;99914.83;109166;1254;72749;-62
2024/02/02 07:53:46;;;;;;;;;;;;;;;6.91;100.00;99915.80;109168;1254;60059;-62
2024/02/02 07:56:15;;;;;;;;;;;;;;;7.37;100.00;99915.39;109133;1253;60964;-62
2024/02/02 07:58:43;;;;;;;;;;;;;;;7.69;100.00;99913.58;109152;1254;73540;-62
2024/02/02 08:01:10;;;;;;;;;;;;;;;7.98;100.00;99914.38;109203;1254;68462;-61
2024/02/02 08:03:38;;;;;;;;;;;;;;;8.28;100.00;99913.58;109149;1254;73496;-62
2024/02/02 08:06:06;;;;;;;;;;;;;;;8.57;100.00;99909.62;109108;1254;60818;-65
2024/02/02 08:08:36;;;;;;;;;;;;;;;8.98;100.00;99914.14;109168;1254;59897;-62
2024/02/02 08:11:04;;;;;;;;;;;;;;;9.35;100.00;99906.58;109202;1254;76798;-62
2024/02/02 08:13:31;;;;;;;;;;;;;;;9.42;100.00;99900.50;109191;1254;70051;-61
2024/02/02 08:15:59;;;;;;;;;;;;;;;9.34;100.00;99889.08;109109;1256;72739;-64
2024/02/02 08:18:27;;;;;;;;;;;;;;;9.11;100.00;99886.94;109191;1255;59100;-61
2024/02/02 08:20:55;;;;;;;;;;;;;;;8.77;100.00;99875.13;109244;1254;60902;-61
2024/02/02 08:23:25;;;;;;;;;;;;;;;8.37;100.00;99867.05;109253;1253;77350;-61
2024/02/02 08:25:53;;;;;;;;;;;;;;;7.93;100.00;99859.33;109227;1253;67231;-60
2024/02/02 08:28:20;;;;;;;;;;;;;;;7.64;100.00;99864.21;109185;1256;73265;-61
2024/02/02 08:30:48;;;;;;;;;;;;;;;7.43;100.00;99859.63;109154;1254;61396;-61
2024/02/02 08:33:15;;;;;;;;;;;;;;;7.26;100.00;99858.95;109170;1254;60413;-60
2024/02/02 08:35:43;;;;;;;;;;;;;;;7.14;100.00;99860.56;109175;1254;73436;-61
2024/02/02 08:38:11;;;;;;;;;;;;;;;7.10;100.00;99858.29;109312;1254;67045;-61
2024/02/02 08:40:42;;;;;;;;;;;;;;;7.13;100.00;99857.97;109143;1254;73067;-60
2024/02/02 08:43:14;;;;;;;;;;;;;;;7.24;100.00;99859.24;109137;1256;60145;-60
2024/02/02 08:45:42;;;;;;;;;;;;;;;7.40;100.00;99859.23;109225;1253;59327;-60
2024/02/02 08:48:30;;;;;;;;;;;;;;;7.45;100.00;99855.05;109187;1254;74639;-60
2024/02/02 08:50:57;;;;;;;;;;;;;;;7.43;100.00;99854.08;109241;1254;65866;-59
2024/02/02 08:53:25;;;;;;;;;;;;;;;7.30;100.00;99852.27;109204;1254;72756;-60
2024/02/02 08:55:56;;;;;;;;;;;;;;;7.01;100.00;99844.59;109255;1253;61415;-60
2024/02/02 08:58:27;;;;;;;;;;;;;;;6.66;100.00;99836.20;109225;1253;58985;-60
2024/02/02 09:00:55;;;;;;;;;;;;;;;6.47;100.00;99825.09;109338;1254;74619;-59
2024/02/02 09:03:25;;;;;;;;;;;;;;;6.51;100.00;99830.88;109171;1257;67720;-60
2024/02/02 09:05:54;;;;;;;;;;;;;;;6.80;100.00;99836.33;109136;1256;72987;-65
2024/02/02 09:08:26;;;;;;;;;;;;;;;7.28;100.00;99835.21;109136;1254;63929;-60
2024/02/02 09:10:57;;;;;;;;;;;;;;;7.75;100.00;99830.07;109334;1254;62378;-60
2024/02/02 09:13:25;;;;;;;;;;;;;;;8.08;100.00;99826.05;109202;1254;73395;-58
2024/02/02 09:15:53;;;;;;;;;;;;;;;8.30;100.00;99821.46;109184;1257;70528;-65
2024/02/02 09:18:23;;;;;;;;;;;;;;;8.34;100.00;99814.09;109162;1254;75110;-59
2024/02/02 09:20:51;;;;;;;;;;;;;;;8.09;100.00;99804.30;109167;1254;62145;-59
2024/02/02 09:23:18;;;;;;;;;;;;;;;7.84;100.00;99800.51;109195;1254;62597;-60
2024/02/02 09:25:46;;;;;;;;;;;;;;;7.87;100.00;99801.33;109321;1253;77705;-59
2024/02/02 09:28:20;;;;;;;;;;;;;;;8.05;100.00;99799.88;109138;1254;67832;-63
2024/02/02 09:30:47;;;;;;;;;;;;;;;8.26;100.00;99799.27;109174;1254;73719;-59
2024/02/02 09:33:30;;;;;;;;;;;;;;;8.49;100.00;99793.98;109086;1253;61759;-59
2024/02/02 09:35:59;;;;;;;;;;;;;;;8.70;100.00;99787.81;109179;1254;60792;-61
2024/02/02 09:38:27;;;;;;;;;;;;;;;8.70;100.00;99783.38;109055;1254;77160;-59
2024/02/02 09:41:00;;;;;;;;;;;;;;;8.54;100.00;99781.82;109258;1254;67509;-60
2024/02/02 09:43:48;;;;;;;;;;;;;;;8.45;100.00;99781.64;109327;1254;73081;-60
2024/02/02 09:46:22;;;;;;;;;;;;;;;8.49;100.00;99775.45;109189;1255;58912;-59
2024/02/02 09:48:59;;;;;;;;;;;;;;;8.67;100.00;99767.59;109172;1254;60889;-59
2024/02/02 09:51:36;;;;;;;;;;;;;;;8.89;100.00;99766.63;109350;1253;75004;-59
2024/02/02 09:54:10;;;;;;;;;;;;;;;8.97;100.00;99755.60;109213;1253;66060;-59
2024/02/02 09:56:50;;;;;;;;;;;;;;;8.81;100.00;99754.30;109154;1254;74883;-59
2024/02/02 09:59:22;;;;;;;;;;;;;;;8.54;100.00;99754.01;109260;1253;62088;-65
2024/02/02 10:01:57;;;;;;;;;;;;;;;8.22;100.00;99759.77;109085;1257;59979;-58
2024/02/02 10:05:00;;;;;;;;;;;;;;;8.02;100.00;99759.77;109088;1253;76376;-59
2024/02/02 10:07:37;;;;;;;;;;;;;;;7.99;100.00;99766.56;108753;1262;69025;-58
2024/02/02 10:10:22;;;;;;;;;;;;;;;8.00;100.00;99762.75;109111;1254;76133;-58
2024/02/02 10:13:03;;;;;;;;;;;;;;;8.12;100.00;99769.62;109203;1253;59330;-59
2024/02/02 10:15:49;;;;;;;;;;;;;;;8.16;100.00;99765.77;109196;1253;63092;-59
2024/02/02 10:18:24;;;;;;;;;;;;;;;8.04;100.00;99770.27;109149;1253;73452;-60
2024/02/02 10:20:58;;;;;;;;;;;;;;;8.01;100.00;99764.59;109175;1254;66595;-59
2024/02/02 10:23:43;;;;;;;;;;;;;;;8.08;100.00;99759.27;109167;1254;74800;-58
2024/02/02 10:26:33;;;;;;;;;;;;;;;7.99;100.00;99756.34;109163;1253;60846;-59
2024/02/02 10:29:07;;;;;;;;;;;;;;;7.68;100.00;99755.21;109238;1253;61923;-58
2024/02/02 10:31:35;;;;;;;;;;;;;;;7.36;100.00;99752.48;109174;1255;75730;-60
2024/02/02 10:34:21;;;;;;;;;;;;;;;7.05;100.00;99751.98;109078;1253;69851;-58
2024/02/02 10:36:59;;;;;;;;;;;;;;;6.79;100.00;99755.27;109184;1254;76129;-59
2024/02/02 10:39:45;;;;;;;;;;;;;;;6.66;100.00;99758.42;109324;1253;62699;-59
2024/02/02 10:42:16;;;;;;;;;;;;;;;6.57;100.00;99758.73;109190;1253;62012;-58
2024/02/02 10:44:53;;;;;;;;;;;;;;;6.51;100.00;99759.57;109175;1253;77851;-65
2024/02/02 10:47:39;;;;;;;;;;;;;;;6.46;100.00;99759.83;109247;1253;68801;-58
2024/02/02 10:50:13;;;;;;;;;;;;;;;6.38;100.00;99761.05;109177;1253;74848;-58
2024/02/02 10:52:47;;;;;;;;;;;;;;;6.31;100.00;99767.65;109255;1253;61057;-58
2024/02/02 10:55:20;;;;;;;;;;;;;;;6.23;100.00;99761.10;109091;1253;60710;-59
2024/02/02 10:57:51;;;;;;;;;;;;;;;6.07;100.00;99765.41;109192;1253;78112;-58
2024/02/02 11:00:21;;;;;;;;;;;;;;;5.90;100.00;99766.92;109310;1253;68570;-58
2024/02/02 11:02:57;;;;;;;;;;;;;;;5.73;100.00;99772.37;109325;1253;75351;-59
2024/02/02 11:05:45;;;;;;;;;;;;;;;5.72;100.00;99776.93;109103;1253;62626;-57
2024/02/02 11:08:18;;;;;;;;;;;;;;;6.03;100.00;99781.92;109271;1253;62698;-57
2024/02/02 11:10:49;;;;;;;;;;;;;;;6.52;100.00;99781.90;109177;1253;76649;-58
2024/02/02 11:13:18;;;;;;;;;;;;;;;6.95;100.00;99776.25;109280;1254;70183;-56
2024/02/02 11:15:54;;;;;;;;;;;;;;;7.12;100.00;99764.27;109238;1252;75225;-57
2024/02/02 11:18:25;;;;;;;;;;;;;;;7.10;100.00;99768.25;109262;1253;61858;-58
2024/02/02 11:20:53;;;;;;;;;;;;;;;7.07;100.00;99775.46;109201;1253;59332;-56
2024/02/02 11:23:36;;;;;;;;;;;;;;;7.07;100.00;99774.22;108947;1253;275109;-57
2024/02/02 11:26:04;;;;;;;;;;;;;;;7.00;100.00;99767.48;109266;1253;68777;-57
2024/02/02 11:28:52;;;;;;;;;;;;;;;6.85;100.00;99769.66;109175;1253;74825;-57
2024/02/02 11:31:52;;;;;;;;;;;;;;;6.68;100.00;99769.82;108977;1253;62056;-57
2024/02/02 11:34:46;;;;;;;;;;;;;;;6.49;100.00;99773.95;108984;1253;61073;-61
2024/02/02 11:37:40;;;;;;;;;;;;;;;6.29;100.00;99779.55;109081;1253;74584;-57
2024/02/02 11:40:08;;;;;;;;;;;;;;;6.20;100.00;99780.63;109216;1253;67944;-57
2024/02/02 11:42:37;;;;;;;;;;;;;;;6.12;100.00;99780.11;109140;1253;73602;-56
2024/02/02 11:45:06;;;;;;;;;;;;;;;6.07;100.00;99777.52;109247;1253;61656;-57
2024/02/02 11:47:37;;;;;;;;;;;;;;;6.01;100.00;99776.77;109252;1254;61947;-59
2024/02/02 11:50:06;;;;;;;;;;;;;;;5.96;100.00;99780.65;109315;1253;77239;-57
2024/02/02 11:52:39;;;;;;;;;;;;;;;6.02;100.00;99773.78;109279;1253;67927;-57
2024/02/02 11:55:12;;;;;;;;;;;;;;;6.24;100.00;99773.30;109237;1253;76278;-57
2024/02/02 11:57:42;;;;;;;;;;;;;;;6.42;100.00;99776.53;109219;1253;60227;-59
2024/02/02 12:00:12;;;;;;;;;;;;;;;6.44;100.00;99778.35;109269;1253;61583;-60
2024/02/02 12:03:03;;;;;;;;;;;;;;;6.35;100.00;99781.94;109101;1253;76889;-57
2024/02/02 12:05:45;;;;;;;;;;;;;;;6.20;100.00;99789.09;109270;1253;67909;-56
2024/02/02 12:08:22;;;;;;;;;;;;;;;6.01;100.00;99789.00;109310;1253;76074;-57
2024/02/02 12:10:50;;;;;;;;;;;;;;;5.81;100.00;99795.60;109327;1253;61961;-56
2024/02/02 12:13:20;;;;;;;;;;;;;;;5.68;100.00;99797.16;109269;1253;63237;-57
2024/02/02 12:15:50;;;;;;;;;;;;;;;5.59;100.00;99802.05;109239;1253;75005;-57
2024/02/02 12:18:18;;;;;;;;;;;;;;;5.55;100.00;99806.77;109202;1253;68845;-57
2024/02/02 12:20:46;;;;;;;;;;;;;;;5.54;100.00;99812.98;109239;1253;74618;-59
2024/02/02 12:23:14;;;;;;;;;;;;;;;5.60;100.00;99814.23;109238;1253;61405;-63
2024/02/02 12:25:41;;;;;;;;;;;;;;;5.75;100.00;99813.35;109257;1254;61962;-56
2024/02/02 12:28:09;;;;;;;;;;;;;;;5.93;100.00;99812.84;109290;1253;76552;-55
2024/02/02 12:30:37;;;;;;;;;;;;;;;6.01;100.00;99813.23;109292;1253;69841;-56
2024/02/02 12:33:05;;;;;;;;;;;;;;;5.97;100.00;99808.81;109224;1253;73162;-57
2024/02/02 12:35:33;;;;;;;;;;;;;;;5.91;100.00;99810.48;109227;1253;61342;-55
2024/02/02 12:38:01;;;;;;;;;;;;;;;5.83;100.00;99812.35;109324;1253;62567;-56
2024/02/02 12:40:29;;;;;;;;;;;;;;;5.72;100.00;99813.81;109275;1253;77904;-56
2024/02/02 12:43:00;;;;;;;;;;;;;;;5.62;100.00;99825.10;109295;1253;67832;-55
2024/02/02 12:45:27;;;;;;;;;;;;;;;5.51;100.00;99818.83;109235;1253;73445;-55
2024/02/02 12:47:56;;;;;;;;;;;;;;;5.43;100.00;99822.40;109253;1253;62565;-55